sensor_id;sensor_type;location;lat;lon;timestamp;pressure;altitude;pressure_sealevel;temperature;humidity
11676;BME280;5894;42.768;23.404;2023-02-02T00:00:55;95772.75;;;4.26;98.16
11676;BME280;5894;42.768;23.404;2023-02-02T00:03:23;95775.66;;;4.30;97.81
11676;BME280;5894;42.768;23.404;2023-02-02T00:05:52;95736.13;;;4.06;97.93
11676;BME280;5894;42.768;23.404;2023-02-02T00:08:20;95767.03;;;4.24;97.33
11676;BME280;5894;42.768;23.404;2023-02-02T00:10:47;95771.69;;;4.17;98.41
11676;BME280;5894;42.768;23.404;2023-02-02T00:13:14;95774.88;;;4.29;99.76
11676;BME280;5894;42.768;23.404;2023-02-02T00:15:42;95777.44;;;4.19;100.00
11676;BME280;5894;42.768;23.404;2023-02-02T00:18:10;95778.47;;;4.18;100.00
11676;BME280;5894;42.768;23.404;2023-02-02T00:20:39;95773.75;;;4.10;100.00
11676;BME280;5894;42.768;23.404;2023-02-02T00:23:06;95783.91;;;4.06;100.00
11676;BME280;5894;42.768;23.404;2023-02-02T00:25:33;95783.41;;;4.04;100.00
11676;BME280;5894;42.768;23.404;2023-02-02T00:28:01;95774.28;;;4.12;100.00
11676;BME280;5894;42.768;23.404;2023-02-02T00:30:29;95789.13;;;4.01;100.00
11676;BME280;5894;42.768;23.404;2023-02-02T00:32:55;95790.94;;;4.01;100.00
11676;BME280;5894;42.768;23.404;2023-02-02T00:35:23;95791.69;;;3.96;100.00
11676;BME280;5894;42.768;23.404;2023-02-02T00:37:51;95793.78;;;3.99;100.00
11676;BME280;5894;42.768;23.404;2023-02-02T00:40:20;95791.72;;;4.01;100.00
11676;BME280;5894;42.768;23.404;2023-02-02T00:42:46;95785.72;;;4.06;100.00
11676;BME280;5894;42.768;23.404;2023-02-02T00:45:14;95784.44;;;4.09;100.00
11676;BME280;5894;42.768;23.404;2023-02-02T00:47:42;95781.03;;;4.03;100.00
11676;BME280;5894;42.768;23.404;2023-02-02T00:50:11;95778.72;;;4.12;100.00
11676;BME280;5894;42.768;23.404;2023-02-02T00:52:39;95778.69;;;4.01;100.00
11676;BME280;5894;42.768;23.404;2023-02-02T00:55:08;95775.81;;;4.03;100.00
11676;BME280;5894;42.768;23.404;2023-02-02T00:57:35;95730.53;;;3.77;100.00
11676;BME280;5894;42.768;23.404;2023-02-02T01:00:04;95765.88;;;4.00;100.00
11676;BME280;5894;42.768;23.404;2023-02-02T01:02:31;95769.03;;;4.02;100.00
11676;BME280;5894;42.768;23.404;2023-02-02T01:05:02;95763.56;;;4.03;100.00
11676;BME280;5894;42.768;23.404;2023-02-02T01:07:31;95774.00;;;4.03;100.00
11676;BME280;5894;42.768;23.404;2023-02-02T01:09:58;95771.91;;;4.05;100.00
11676;BME280;5894;42.768;23.404;2023-02-02T01:12:26;95768.78;;;4.03;100.00
11676;BME280;5894;42.768;23.404;2023-02-02T01:14:55;95766.66;;;4.00;100.00
11676;BME280;5894;42.768;23.404;2023-02-02T01:17:22;95744.66;;;3.86;100.00
11676;BME280;5894;42.768;23.404;2023-02-02T01:19:49;95765.09;;;3.99;100.00
11676;BME280;5894;42.768;23.404;2023-02-02T01:22:16;95757.00;;;4.01;100.00
11676;BME280;5894;42.768;23.404;2023-02-02T01:24:43;95745.50;;;3.97;100.00
11676;BME280;5894;42.768;23.404;2023-02-02T01:27:10;95741.59;;;3.94;100.00
11676;BME280;5894;42.768;23.404;2023-02-02T01:29:38;95739.00;;;3.94;100.00
11676;BME280;5894;42.768;23.404;2023-02-02T01:32:05;95730.88;;;3.91;100.00
11676;BME280;5894;42.768;23.404;2023-02-02T01:34:32;95722.50;;;3.89;100.00
11676;BME280;5894;42.768;23.404;2023-02-02T01:36:59;95712.28;;;3.77;100.00
11676;BME280;5894;42.768;23.404;2023-02-02T01:39:25;95720.16;;;3.82;100.00
11676;BME280;5894;42.768;23.404;2023-02-02T01:41:52;95715.19;;;3.81;100.00
11676;BME280;5894;42.768;23.404;2023-02-02T01:47:28;95719.06;;;3.78;100.00
11676;BME280;5894;42.768;23.404;2023-02-02T01:49:56;95702.63;;;3.73;100.00
11676;BME280;5894;42.768;23.404;2023-02-02T01:52:26;95703.38;;;3.68;100.00
11676;BME280;5894;42.768;23.404;2023-02-02T01:54:57;95702.53;;;3.57;100.00
11676;BME280;5894;42.768;23.404;2023-02-02T01:57:37;95700.22;;;3.61;100.00
11676;BME280;5894;42.768;23.404;2023-02-02T02:00:10;95707.81;;;3.62;100.00
11676;BME280;5894;42.768;23.404;2023-02-02T02:02:45;95717.22;;;3.68;100.00
11676;BME280;5894;42.768;23.404;2023-02-02T02:05:22;95721.34;;;3.59;100.00
11676;BME280;5894;42.768;23.404;2023-02-02T02:07:51;95724.94;;;3.53;100.00
11676;BME280;5894;42.768;23.404;2023-02-02T02:10:20;95716.84;;;3.50;100.00
11676;BME280;5894;42.768;23.404;2023-02-02T02:12:47;95724.63;;;3.45;100.00
11676;BME280;5894;42.768;23.404;2023-02-02T02:15:14;95717.06;;;3.43;100.00
11676;BME280;5894;42.768;23.404;2023-02-02T02:18:09;95723.88;;;3.49;100.00
11676;BME280;5894;42.768;23.404;2023-02-02T02:20:59;95728.09;;;3.55;100.00
11676;BME280;5894;42.768;23.404;2023-02-02T02:30:37;95722.28;;;3.43;100.00
11676;BME280;5894;42.768;23.404;2023-02-02T02:33:10;95736.44;;;3.52;100.00
11676;BME280;5894;42.768;23.404;2023-02-02T02:35:41;95719.34;;;3.35;100.00
11676;BME280;5894;42.768;23.404;2023-02-02T02:38:19;95728.63;;;3.57;100.00
11676;BME280;5894;42.768;23.404;2023-02-02T02:40:53;95728.88;;;3.56;100.00
11676;BME280;5894;42.768;23.404;2023-02-02T02:43:26;95702.47;;;3.42;100.00
11676;BME280;5894;42.768;23.404;2023-02-02T02:45:54;95728.66;;;3.62;100.00
11676;BME280;5894;42.768;23.404;2023-02-02T02:48:23;95720.31;;;3.65;100.00
11676;BME280;5894;42.768;23.404;2023-02-02T02:50:50;95720.56;;;3.59;100.00
11676;BME280;5894;42.768;23.404;2023-02-02T02:53:19;95726.06;;;3.62;100.00
11676;BME280;5894;42.768;23.404;2023-02-02T02:55:59;95716.63;;;3.56;100.00
11676;BME280;5894;42.768;23.404;2023-02-02T02:58:35;95732.50;;;3.55;100.00
11676;BME280;5894;42.768;23.404;2023-02-02T03:01:11;95721.81;;;3.51;100.00
11676;BME280;5894;42.768;23.404;2023-02-02T03:03:49;95727.53;;;3.48;100.00
11676;BME280;5894;42.768;23.404;2023-02-02T03:06:28;95722.84;;;3.50;100.00
11676;BME280;5894;42.768;23.404;2023-02-02T03:09:03;95720.25;;;3.50;100.00
11676;BME280;5894;42.768;23.404;2023-02-02T03:11:33;95719.16;;;3.41;100.00
11676;BME280;5894;42.768;23.404;2023-02-02T03:14:00;95730.63;;;3.45;100.00
11676;BME280;5894;42.768;23.404;2023-02-02T03:16:29;95737.66;;;3.45;100.00
11676;BME280;5894;42.768;23.404;2023-02-02T03:18:57;95732.38;;;3.35;100.00
11676;BME280;5894;42.768;23.404;2023-02-02T03:21:25;95732.94;;;3.37;100.00
11676;BME280;5894;42.768;23.404;2023-02-02T03:23:51;95739.97;;;3.36;100.00
11676;BME280;5894;42.768;23.404;2023-02-02T03:26:18;95734.47;;;3.32;100.00
11676;BME280;5894;42.768;23.404;2023-02-02T03:28:46;95738.63;;;3.28;100.00
11676;BME280;5894;42.768;23.404;2023-02-02T03:31:13;95750.06;;;3.27;100.00
11676;BME280;5894;42.768;23.404;2023-02-02T03:33:41;95726.78;;;3.16;100.00
11676;BME280;5894;42.768;23.404;2023-02-02T03:36:09;95742.19;;;3.17;100.00
11676;BME280;5894;42.768;23.404;2023-02-02T03:38:37;95743.22;;;3.16;100.00
11676;BME280;5894;42.768;23.404;2023-02-02T03:41:05;95701.78;;;2.83;100.00
11676;BME280;5894;42.768;23.404;2023-02-02T03:43:32;95742.13;;;3.12;100.00
11676;BME280;5894;42.768;23.404;2023-02-02T03:46:00;95739.28;;;3.14;100.00
11676;BME280;5894;42.768;23.404;2023-02-02T03:48:29;95740.63;;;3.16;100.00
11676;BME280;5894;42.768;23.404;2023-02-02T03:50:58;95736.72;;;3.19;100.00
11676;BME280;5894;42.768;23.404;2023-02-02T03:53:27;95735.16;;;3.18;100.00
11676;BME280;5894;42.768;23.404;2023-02-02T03:55:54;95730.19;;;3.16;100.00
11676;BME280;5894;42.768;23.404;2023-02-02T03:58:20;95731.22;;;3.15;100.00
11676;BME280;5894;42.768;23.404;2023-02-02T04:00:47;95728.38;;;3.17;100.00
11676;BME280;5894;42.768;23.404;2023-02-02T04:03:14;95728.91;;;3.19;100.00
11676;BME280;5894;42.768;23.404;2023-02-02T04:05:41;95727.59;;;3.16;100.00
11676;BME280;5894;42.768;23.404;2023-02-02T04:08:07;95725.72;;;3.12;100.00
11676;BME280;5894;42.768;23.404;2023-02-02T04:10:35;95726.00;;;3.10;100.00
11676;BME280;5894;42.768;23.404;2023-02-02T04:13:04;95728.84;;;3.09;100.00
11676;BME280;5894;42.768;23.404;2023-02-02T04:15:30;95729.78;;;2.98;100.00
11676;BME280;5894;42.768;23.404;2023-02-02T04:17:57;95730.25;;;2.89;100.00
11676;BME280;5894;42.768;23.404;2023-02-02T04:20:24;95731.22;;;2.83;100.00
11676;BME280;5894;42.768;23.404;2023-02-02T04:22:51;95736.75;;;2.87;100.00
11676;BME280;5894;42.768;23.404;2023-02-02T04:25:19;95735.03;;;2.71;100.00
11676;BME280;5894;42.768;23.404;2023-02-02T04:27:47;95740.69;;;2.63;100.00
11676;BME280;5894;42.768;23.404;2023-02-02T04:30:14;95742.25;;;2.64;100.00
11676;BME280;5894;42.768;23.404;2023-02-02T04:32:41;95737.84;;;2.64;100.00
11676;BME280;5894;42.768;23.404;2023-02-02T04:35:08;95741.94;;;2.60;100.00
11676;BME280;5894;42.768;23.404;2023-02-02T04:37:34;95737.63;;;2.71;100.00
11676;BME280;5894;42.768;23.404;2023-02-02T04:40:01;95750.94;;;2.74;100.00
11676;BME280;5894;42.768;23.404;2023-02-02T04:42:29;95753.31;;;2.76;100.00
11676;BME280;5894;42.768;23.404;2023-02-02T04:45:00;95759.34;;;2.81;100.00
11676;BME280;5894;42.768;23.404;2023-02-02T04:47:27;95753.09;;;2.82;100.00
11676;BME280;5894;42.768;23.404;2023-02-02T04:49:54;95760.38;;;2.80;100.00
11676;BME280;5894;42.768;23.404;2023-02-02T04:52:21;95761.91;;;2.76;100.00
11676;BME280;5894;42.768;23.404;2023-02-02T04:54:47;95752.28;;;2.77;100.00
11676;BME280;5894;42.768;23.404;2023-02-02T04:57:15;95764.97;;;2.68;100.00
11676;BME280;5894;42.768;23.404;2023-02-02T04:59:42;95758.88;;;2.57;100.00
11676;BME280;5894;42.768;23.404;2023-02-02T05:02:10;95755.72;;;2.55;100.00
11676;BME280;5894;42.768;23.404;2023-02-02T05:04:36;95752.53;;;2.48;100.00
11676;BME280;5894;42.768;23.404;2023-02-02T05:07:03;95756.44;;;2.51;100.00
11676;BME280;5894;42.768;23.404;2023-02-02T05:09:30;95763.22;;;2.52;100.00
11676;BME280;5894;42.768;23.404;2023-02-02T05:11:57;95757.00;;;2.53;100.00
11676;BME280;5894;42.768;23.404;2023-02-02T05:14:23;95761.16;;;2.54;100.00
11676;BME280;5894;42.768;23.404;2023-02-02T05:16:50;95751.78;;;2.53;100.00
11676;BME280;5894;42.768;23.404;2023-02-02T05:19:19;95743.97;;;2.53;100.00
11676;BME280;5894;42.768;23.404;2023-02-02T05:21:46;95765.56;;;2.48;100.00
11676;BME280;5894;42.768;23.404;2023-02-02T05:24:14;95769.44;;;2.46;100.00
11676;BME280;5894;42.768;23.404;2023-02-02T05:26:41;95756.91;;;2.21;100.00
11676;BME280;5894;42.768;23.404;2023-02-02T05:29:07;95760.06;;;2.23;100.00
11676;BME280;5894;42.768;23.404;2023-02-02T05:31:34;95770.66;;;2.16;100.00
11676;BME280;5894;42.768;23.404;2023-02-02T05:34:01;95762.88;;;2.16;100.00
11676;BME280;5894;42.768;23.404;2023-02-02T05:36:29;95762.78;;;2.11;100.00
11676;BME280;5894;42.768;23.404;2023-02-02T05:38:58;95756.75;;;2.06;100.00
11676;BME280;5894;42.768;23.404;2023-02-02T05:41:25;95737.34;;;1.92;100.00
11676;BME280;5894;42.768;23.404;2023-02-02T05:43:52;95773.50;;;2.15;100.00
11676;BME280;5894;42.768;23.404;2023-02-02T05:46:18;95770.91;;;2.15;100.00
11676;BME280;5894;42.768;23.404;2023-02-02T05:48:45;95775.13;;;2.21;100.00
11676;BME280;5894;42.768;23.404;2023-02-02T05:51:15;95769.13;;;2.20;100.00
11676;BME280;5894;42.768;23.404;2023-02-02T05:53:45;95767.94;;;2.28;100.00
11676;BME280;5894;42.768;23.404;2023-02-02T05:56:12;95753.75;;;2.19;100.00
11676;BME280;5894;42.768;23.404;2023-02-02T05:58:40;95778.63;;;2.32;100.00
11676;BME280;5894;42.768;23.404;2023-02-02T06:01:07;95771.81;;;2.26;100.00
11676;BME280;5894;42.768;23.404;2023-02-02T06:03:34;95765.34;;;2.28;100.00
11676;BME280;5894;42.768;23.404;2023-02-02T06:06:01;95761.06;;;2.17;100.00
11676;BME280;5894;42.768;23.404;2023-02-02T06:08:28;95718.88;;;1.93;100.00
11676;BME280;5894;42.768;23.404;2023-02-02T06:10:56;95769.75;;;2.28;100.00
11676;BME280;5894;42.768;23.404;2023-02-02T06:13:23;95702.97;;;1.90;100.00
11676;BME280;5894;42.768;23.404;2023-02-02T06:15:50;95771.44;;;2.39;100.00
11676;BME280;5894;42.768;23.404;2023-02-02T06:18:16;95780.06;;;2.44;100.00
11676;BME280;5894;42.768;23.404;2023-02-02T06:20:43;95769.97;;;2.48;100.00
11676;BME280;5894;42.768;23.404;2023-02-02T06:23:11;95783.16;;;2.41;100.00
11676;BME280;5894;42.768;23.404;2023-02-02T06:25:38;95796.53;;;2.50;100.00
11676;BME280;5894;42.768;23.404;2023-02-02T06:28:07;95779.41;;;2.54;100.00
11676;BME280;5894;42.768;23.404;2023-02-02T06:30:33;95792.41;;;2.54;100.00
11676;BME280;5894;42.768;23.404;2023-02-02T06:33:00;95759.47;;;2.38;100.00
11676;BME280;5894;42.768;23.404;2023-02-02T06:35:27;95804.50;;;2.65;100.00
11676;BME280;5894;42.768;23.404;2023-02-02T06:37:54;95803.47;;;2.66;100.00
11676;BME280;5894;42.768;23.404;2023-02-02T06:40:20;95803.25;;;2.68;100.00
11676;BME280;5894;42.768;23.404;2023-02-02T06:42:54;95797.78;;;2.69;100.00
11676;BME280;5894;42.768;23.404;2023-02-02T06:45:22;95809.47;;;2.67;100.00
11676;BME280;5894;42.768;23.404;2023-02-02T06:47:49;95812.34;;;2.70;100.00
11676;BME280;5894;42.768;23.404;2023-02-02T06:50:16;95817.03;;;2.68;100.00
11676;BME280;5894;42.768;23.404;2023-02-02T06:52:46;95819.69;;;2.73;100.00
11676;BME280;5894;42.768;23.404;2023-02-02T06:55:13;95784.47;;;2.66;100.00
11676;BME280;5894;42.768;23.404;2023-02-02T06:57:42;95814.91;;;2.92;100.00
11676;BME280;5894;42.768;23.404;2023-02-02T07:00:10;95822.72;;;2.92;100.00
11676;BME280;5894;42.768;23.404;2023-02-02T07:02:38;95771.91;;;2.57;100.00
11676;BME280;5894;42.768;23.404;2023-02-02T07:05:05;95825.50;;;3.07;100.00
11676;BME280;5894;42.768;23.404;2023-02-02T07:07:33;95813.78;;;3.10;100.00
11676;BME280;5894;42.768;23.404;2023-02-02T07:10:00;95805.88;;;3.00;100.00
11676;BME280;5894;42.768;23.404;2023-02-02T07:12:26;95823.28;;;3.21;100.00
11676;BME280;5894;42.768;23.404;2023-02-02T07:14:53;95815.06;;;3.07;100.00
11676;BME280;5894;42.768;23.404;2023-02-02T07:17:20;95836.03;;;3.22;100.00
11676;BME280;5894;42.768;23.404;2023-02-02T07:19:48;95830.03;;;3.22;100.00
11676;BME280;5894;42.768;23.404;2023-02-02T07:22:15;95826.44;;;3.28;100.00
11676;BME280;5894;42.768;23.404;2023-02-02T07:24:42;95822.31;;;3.32;100.00
11676;BME280;5894;42.768;23.404;2023-02-02T07:27:09;95830.72;;;3.39;100.00
11676;BME280;5894;42.768;23.404;2023-02-02T07:29:35;95834.91;;;3.40;100.00
11676;BME280;5894;42.768;23.404;2023-02-02T07:32:02;95778.84;;;3.06;100.00
11676;BME280;5894;42.768;23.404;2023-02-02T07:34:29;95832.03;;;3.42;100.00
11676;BME280;5894;42.768;23.404;2023-02-02T07:36:57;95830.72;;;3.44;100.00
11676;BME280;5894;42.768;23.404;2023-02-02T07:39:24;95818.81;;;3.53;100.00
11676;BME280;5894;42.768;23.404;2023-02-02T07:41:51;95812.53;;;3.49;100.00
11676;BME280;5894;42.768;23.404;2023-02-02T07:44:29;95820.38;;;3.54;100.00
11676;BME280;5894;42.768;23.404;2023-02-02T07:46:56;95823.59;;;3.66;100.00
11676;BME280;5894;42.768;23.404;2023-02-02T07:49:22;95820.19;;;3.66;100.00
11676;BME280;5894;42.768;23.404;2023-02-02T07:51:49;95819.53;;;3.81;100.00
11676;BME280;5894;42.768;23.404;2023-02-02T07:54:18;95819.03;;;3.89;100.00
11676;BME280;5894;42.768;23.404;2023-02-02T07:56:45;95798.19;;;3.89;100.00
11676;BME280;5894;42.768;23.404;2023-02-02T07:59:12;95818.06;;;4.05;100.00
11676;BME280;5894;42.768;23.404;2023-02-02T08:01:39;95810.25;;;4.05;100.00
11676;BME280;5894;42.768;23.404;2023-02-02T08:04:06;95799.88;;;4.15;100.00
11676;BME280;5894;42.768;23.404;2023-02-02T08:06:35;95792.34;;;4.24;100.00
11676;BME280;5894;42.768;23.404;2023-02-02T08:09:04;95797.06;;;4.37;100.00
11676;BME280;5894;42.768;23.404;2023-02-02T08:11:34;95784.06;;;4.47;100.00
11676;BME280;5894;42.768;23.404;2023-02-02T08:14:02;95781.50;;;4.62;100.00
11676;BME280;5894;42.768;23.404;2023-02-02T08:16:30;95784.38;;;4.71;100.00
11676;BME280;5894;42.768;23.404;2023-02-02T08:18:58;95779.97;;;4.76;100.00
11676;BME280;5894;42.768;23.404;2023-02-02T08:21:25;95783.63;;;4.80;100.00
11676;BME280;5894;42.768;23.404;2023-02-02T08:23:52;95777.63;;;4.85;100.00
11676;BME280;5894;42.768;23.404;2023-02-02T08:26:20;95780.78;;;4.87;100.00
11676;BME280;5894;42.768;23.404;2023-02-02T08:28:52;95786.50;;;4.89;100.00
11676;BME280;5894;42.768;23.404;2023-02-02T08:31:20;95777.09;;;4.83;100.00
11676;BME280;5894;42.768;23.404;2023-02-02T08:33:48;95768.97;;;4.79;100.00
11676;BME280;5894;42.768;23.404;2023-02-02T08:36:18;95766.13;;;4.81;100.00
11676;BME280;5894;42.768;23.404;2023-02-02T08:38:46;95774.75;;;4.92;100.00
11676;BME280;5894;42.768;23.404;2023-02-02T08:41:15;95768.22;;;4.99;99.99
11676;BME280;5894;42.768;23.404;2023-02-02T08:43:42;95769.03;;;5.05;100.00
11676;BME280;5894;42.768;23.404;2023-02-02T08:46:13;95763.78;;;5.10;98.25
11676;BME280;5894;42.768;23.404;2023-02-02T08:48:40;95758.31;;;5.16;98.40
11676;BME280;5894;42.768;23.404;2023-02-02T08:51:09;95759.06;;;5.22;98.65
11676;BME280;5894;42.768;23.404;2023-02-02T08:53:36;95754.38;;;5.19;96.92
11676;BME280;5894;42.768;23.404;2023-02-02T08:56:05;95754.38;;;5.34;95.97
11676;BME280;5894;42.768;23.404;2023-02-02T08:58:32;95754.09;;;5.31;98.13
11676;BME280;5894;42.768;23.404;2023-02-02T09:01:05;95752.53;;;5.35;98.78
11676;BME280;5894;42.768;23.404;2023-02-02T09:03:34;95761.97;;;5.36;98.53
11676;BME280;5894;42.768;23.404;2023-02-02T09:06:04;95761.69;;;5.42;98.18
11676;BME280;5894;42.768;23.404;2023-02-02T09:08:32;95756.97;;;5.49;99.18
11676;BME280;5894;42.768;23.404;2023-02-02T09:11:04;95746.75;;;5.53;98.12
11676;BME280;5894;42.768;23.404;2023-02-02T09:13:31;95750.94;;;5.69;98.07
11676;BME280;5894;42.768;23.404;2023-02-02T09:15:59;95749.06;;;5.75;96.33
11676;BME280;5894;42.768;23.404;2023-02-02T09:18:26;95741.22;;;5.80;95.47
11676;BME280;5894;42.768;23.404;2023-02-02T09:20:58;95743.84;;;5.90;95.83
11676;BME280;5894;42.768;23.404;2023-02-02T09:23:25;95749.56;;;5.97;95.45
11676;BME280;5894;42.768;23.404;2023-02-02T09:25:52;95745.84;;;6.03;93.50
11676;BME280;5894;42.768;23.404;2023-02-02T09:28:19;95735.38;;;6.08;92.91
11676;BME280;5894;42.768;23.404;2023-02-02T09:30:46;95735.59;;;6.22;92.93
11676;BME280;5894;42.768;23.404;2023-02-02T09:33:12;95736.34;;;6.28;93.45
11676;BME280;5894;42.768;23.404;2023-02-02T09:35:39;95726.06;;;6.41;89.53
11676;BME280;5894;42.768;23.404;2023-02-02T09:38:07;95723.41;;;6.46;90.75
11676;BME280;5894;42.768;23.404;2023-02-02T09:40:34;95719.47;;;6.49;92.50
11676;BME280;5894;42.768;23.404;2023-02-02T09:43:07;95699.88;;;6.36;92.64
11676;BME280;5894;42.768;23.404;2023-02-02T09:45:45;95724.91;;;6.57;93.11
11676;BME280;5894;42.768;23.404;2023-02-02T09:48:24;95718.09;;;6.61;93.28
11676;BME280;5894;42.768;23.404;2023-02-02T09:50:58;95713.31;;;6.69;92.09
11676;BME280;5894;42.768;23.404;2023-02-02T09:53:34;95705.63;;;6.82;91.41
11676;BME280;5894;42.768;23.404;2023-02-02T09:56:05;95700.59;;;6.86;91.12
11676;BME280;5894;42.768;23.404;2023-02-02T09:58:38;95706.00;;;6.99;90.65
11676;BME280;5894;42.768;23.404;2023-02-02T10:01:09;95698.06;;;7.10;89.46
11676;BME280;5894;42.768;23.404;2023-02-02T10:03:42;95703.56;;;7.13;90.08
11676;BME280;5894;42.768;23.404;2023-02-02T10:06:27;95681.25;;;7.16;89.84
11676;BME280;5894;42.768;23.404;2023-02-02T10:09:02;95689.47;;;7.33;89.41
11676;BME280;5894;42.768;23.404;2023-02-02T10:11:36;95688.03;;;7.46;90.87
11676;BME280;5894;42.768;23.404;2023-02-02T10:14:20;95677.97;;;7.53;88.15
11676;BME280;5894;42.768;23.404;2023-02-02T10:16:51;95670.44;;;7.70;88.38
11676;BME280;5894;42.768;23.404;2023-02-02T10:19:20;95668.44;;;7.86;86.42
11676;BME280;5894;42.768;23.404;2023-02-02T10:21:59;95666.75;;;7.95;89.43
11676;BME280;5894;42.768;23.404;2023-02-02T10:24:32;95652.72;;;8.04;89.03
11676;BME280;5894;42.768;23.404;2023-02-02T10:27:02;95666.72;;;8.19;86.61
11676;BME280;5894;42.768;23.404;2023-02-02T10:29:41;95662.63;;;8.31;81.73
11676;BME280;5894;42.768;23.404;2023-02-02T10:32:15;95662.47;;;8.41;79.54
11676;BME280;5894;42.768;23.404;2023-02-02T10:34:58;95662.41;;;8.46;78.24
11676;BME280;5894;42.768;23.404;2023-02-02T10:37:30;95650.75;;;8.53;75.70
11676;BME280;5894;42.768;23.404;2023-02-02T10:40:22;95647.78;;;8.59;76.53
11676;BME280;5894;42.768;23.404;2023-02-02T10:43:04;95621.78;;;8.58;76.95
11676;BME280;5894;42.768;23.404;2023-02-02T10:45:55;95627.94;;;8.67;78.20
11676;BME280;5894;42.768;23.404;2023-02-02T10:48:26;95615.97;;;8.74;78.47
11676;BME280;5894;42.768;23.404;2023-02-02T10:50:58;95611.94;;;8.82;75.70
11676;BME280;5894;42.768;23.404;2023-02-02T10:53:27;95615.03;;;8.84;73.44
11676;BME280;5894;42.768;23.404;2023-02-02T10:55:59;95611.25;;;8.90;74.79
11676;BME280;5894;42.768;23.404;2023-02-02T10:58:34;95607.56;;;8.91;73.27
11676;BME280;5894;42.768;23.404;2023-02-02T11:01:01;95612.16;;;8.99;74.01
11676;BME280;5894;42.768;23.404;2023-02-02T11:03:32;95561.25;;;8.76;72.87
11676;BME280;5894;42.768;23.404;2023-02-02T11:06:01;95601.91;;;8.98;72.25
11676;BME280;5894;42.768;23.404;2023-02-02T11:08:48;95600.34;;;8.97;70.78
11676;BME280;5894;42.768;23.404;2023-02-02T11:11:23;95597.44;;;8.98;70.62
11676;BME280;5894;42.768;23.404;2023-02-02T11:13:55;95597.31;;;8.90;71.39
11676;BME280;5894;42.768;23.404;2023-02-02T11:16:26;95591.84;;;8.86;70.17
11676;BME280;5894;42.768;23.404;2023-02-02T11:18:53;95588.44;;;8.86;70.12
11676;BME280;5894;42.768;23.404;2023-02-02T11:21:23;95580.47;;;8.91;70.80
11676;BME280;5894;42.768;23.404;2023-02-02T11:23:53;95585.75;;;8.91;72.96
11676;BME280;5894;42.768;23.404;2023-02-02T11:26:22;95570.75;;;8.91;72.44
11676;BME280;5894;42.768;23.404;2023-02-02T11:28:51;95573.38;;;8.91;71.80
11676;BME280;5894;42.768;23.404;2023-02-02T11:31:33;95556.53;;;8.92;71.94
11676;BME280;5894;42.768;23.404;2023-02-02T11:34:15;95557.00;;;8.94;73.28
11676;BME280;5894;42.768;23.404;2023-02-02T11:37:01;95547.84;;;8.92;72.02
11676;BME280;5894;42.768;23.404;2023-02-02T11:39:28;95552.06;;;8.93;71.10
11676;BME280;5894;42.768;23.404;2023-02-02T11:42:04;95498.91;;;8.50;70.80
11676;BME280;5894;42.768;23.404;2023-02-02T11:44:33;95545.88;;;8.83;71.84
11676;BME280;5894;42.768;23.404;2023-02-02T11:47:02;95553.28;;;8.81;72.42
11676;BME280;5894;42.768;23.404;2023-02-02T11:49:32;95536.63;;;8.86;73.24
11676;BME280;5894;42.768;23.404;2023-02-02T11:52:05;95543.94;;;8.89;74.57
11676;BME280;5894;42.768;23.404;2023-02-02T11:54:36;95472.22;;;8.56;76.73
11676;BME280;5894;42.768;23.404;2023-02-02T11:57:07;95515.69;;;8.81;78.34
11676;BME280;5894;42.768;23.404;2023-02-02T11:59:37;95518.50;;;8.84;78.19
11676;BME280;5894;42.768;23.404;2023-02-02T12:02:22;95524.94;;;8.78;79.72
11676;BME280;5894;42.768;23.404;2023-02-02T12:04:51;95515.09;;;8.84;78.95
11676;BME280;5894;42.768;23.404;2023-02-02T12:07:23;95464.31;;;8.42;78.08
11676;BME280;5894;42.768;23.404;2023-02-02T12:09:51;95517.06;;;8.78;78.34
11676;BME280;5894;42.768;23.404;2023-02-02T12:12:33;95527.19;;;8.71;77.95
11676;BME280;5894;42.768;23.404;2023-02-02T12:15:16;95521.97;;;8.53;79.46
11676;BME280;5894;42.768;23.404;2023-02-02T12:17:51;95507.34;;;8.46;79.93
11676;BME280;5894;42.768;23.404;2023-02-02T12:20:29;95516.34;;;8.59;79.16
11676;BME280;5894;42.768;23.404;2023-02-02T12:26:10;95518.38;;;8.62;73.34
11676;BME280;5894;42.768;23.404;2023-02-02T12:29:02;95514.22;;;8.61;73.68
11676;BME280;5894;42.768;23.404;2023-02-02T12:31:42;95510.09;;;8.55;74.80
11676;BME280;5894;42.768;23.404;2023-02-02T12:34:18;95514.97;;;8.62;72.85
11676;BME280;5894;42.768;23.404;2023-02-02T12:36:55;95504.56;;;8.57;68.28
11676;BME280;5894;42.768;23.404;2023-02-02T12:39:32;95510.88;;;8.56;65.27
11676;BME280;5894;42.768;23.404;2023-02-02T12:42:19;95510.69;;;8.66;66.06
11676;BME280;5894;42.768;23.404;2023-02-02T12:45:18;95517.34;;;8.77;63.93
11676;BME280;5894;42.768;23.404;2023-02-02T12:47:57;95510.22;;;8.77;62.71
11676;BME280;5894;42.768;23.404;2023-02-02T12:50:30;95510.59;;;8.57;62.86
11676;BME280;5894;42.768;23.404;2023-02-02T12:53:13;95495.22;;;8.32;64.72
11676;BME280;5894;42.768;23.404;2023-02-02T12:55:49;95512.41;;;8.43;64.90
11676;BME280;5894;42.768;23.404;2023-02-02T12:58:26;95512.31;;;8.48;65.58
11676;BME280;5894;42.768;23.404;2023-02-02T13:01:06;95511.38;;;8.58;65.17
11676;BME280;5894;42.768;23.404;2023-02-02T13:03:48;95490.38;;;8.71;66.00
11676;BME280;5894;42.768;23.404;2023-02-02T13:06:32;95474.31;;;8.87;66.34
11676;BME280;5894;42.768;23.404;2023-02-02T13:09:09;95487.34;;;9.05;64.55
11676;BME280;5894;42.768;23.404;2023-02-02T13:11:40;95460.56;;;8.90;64.21
11676;BME280;5894;42.768;23.404;2023-02-02T13:14:12;95495.81;;;9.16;64.02
11676;BME280;5894;42.768;23.404;2023-02-02T13:16:45;95501.38;;;9.14;63.69
11676;BME280;5894;42.768;23.404;2023-02-02T13:19:22;95495.66;;;9.12;64.71
11676;BME280;5894;42.768;23.404;2023-02-02T13:21:55;95491.94;;;9.13;65.81
11676;BME280;5894;42.768;23.404;2023-02-02T13:24:26;95501.19;;;9.11;65.34
11676;BME280;5894;42.768;23.404;2023-02-02T13:26:56;95487.34;;;9.05;66.11
11676;BME280;5894;42.768;23.404;2023-02-02T13:29:30;95485.50;;;9.06;66.28
11676;BME280;5894;42.768;23.404;2023-02-02T13:32:03;95476.34;;;9.03;66.21
11676;BME280;5894;42.768;23.404;2023-02-02T13:34:38;95480.72;;;9.08;65.10